Change the Weather History Date:

Tuesday, February 18, 2014

  Actual Average Record
Temperature  
Mean Temperature 28 °F -  
Max Temperature 39 °F - - ()
Min Temperature 16 °F - - ()
Degree Days  
Heating Degree Days 38    
Moisture  
Dew Point 21 °F    
Average Humidity 74    
Maximum Humidity 96    
Minimum Humidity 51    
Precipitation  
Precipitation 0.11 in - - ()
Sea Level Pressure  
Sea Level Pressure 29.60 in    
Wind  
Wind Speed 6 mph (SSW)    
Max Wind Speed 13 mph    
Max Gust Speed 16 mph    
Visibility 9 miles    
Events      
T = Trace of Precipitation, MM = Missing Value Source: NWS Daily Summary

Daily Weather History Graph

Daily Weather History Graph

Search for Another Location

Airport or City:

Trip Planner

Search our weather history database for the weather conditions in past years. The results will help you decide how hot, cold, wet, or windy it might be!

Date:

Astronomy

Feb. 18, 2014 Rise Set
Actual Time 7:06 AM CST 5:40 PM CST
Civil Twilight 6:36 AM CST 6:10 PM CST
Nautical Twilight 6:01 AM CST 6:45 PM CST
Astronomical Twilight 5:27 AM CST 7:20 PM CST
Moon 9:49 PM CST (2/18) 8:26 AM CST (2/18)
Length of Visible Light 11h 34m
Length of Day
10h 33m
Waning Gibbous, 87% of the Moon is Illuminated
Feb 18
Waning Gibbous
Feb 22
Last Quarter
Mar 1
New
Mar 8
First Quarter
Mar 16
Full

Hourly Weather History & Observations

Time (CST) Temp. Windchill Dew Point Humidity Pressure Visibility Wind Dir Wind Speed Gust Speed Precip Events Conditions
12:15 AM 16.3 °F 7.8 °F 15.1 °F 95% 29.74 in 4.0 mi South 5.8 mph - N/A   Mostly Cloudy
12:35 AM 18.5 °F 10.4 °F 17.4 °F 96% 29.73 in 4.0 mi SSE 5.8 mph - N/A   Mostly Cloudy
12:55 AM 17.8 °F 9.6 °F 16.5 °F 95% 29.72 in 4.0 mi South 5.8 mph - N/A   Scattered Clouds
1:15 AM 18.9 °F 12.1 °F 18.0 °F 96% 29.71 in 5.0 mi SSE 4.6 mph - N/A   Clear
1:35 AM 19.4 °F 12.8 °F 18.5 °F 96% 29.70 in 5.0 mi SSE 4.6 mph - N/A   Clear
1:55 AM 19.2 °F 11.3 °F 18.0 °F 95% 29.69 in 5.0 mi SSE 5.8 mph - N/A   Clear
2:15 AM 19.8 °F 11.9 °F 18.5 °F 95% 29.68 in 4.0 mi SSE 5.8 mph - N/A   Clear
2:35 AM 19.8 °F 10.8 °F 18.9 °F 96% 29.68 in 4.0 mi SSE 6.9 mph - N/A   Clear
2:55 AM 19.8 °F 10.8 °F 18.5 °F 95% 29.67 in 4.0 mi SSE 6.9 mph - N/A   Clear
3:15 AM 20.3 °F 12.5 °F 19.2 °F 96% 29.65 in 4.0 mi SSE 5.8 mph - N/A   Clear
3:35 AM 21.0 °F 14.6 °F 19.9 °F 96% 29.63 in 5.0 mi SE 4.6 mph - N/A   Clear
3:55 AM 21.2 °F 12.6 °F 19.9 °F 95% 29.62 in 5.0 mi SSE 6.9 mph - N/A   Clear
4:15 AM 21.6 °F 11.3 °F 20.3 °F 95% 29.61 in 5.0 mi SSE 9.2 mph - N/A   Clear
4:35 AM 21.6 °F 11.3 °F 20.1 °F 94% 29.61 in 7.0 mi SSE 9.2 mph - N/A   Clear
4:55 AM 21.9 °F 12.5 °F 20.3 °F 93% 29.60 in 7.0 mi SSE 8.1 mph - N/A   Clear
5:15 AM 22.3 °F 13.0 °F 20.5 °F 93% 29.59 in 7.0 mi SSE 8.1 mph - N/A   Clear
5:35 AM 22.5 °F 14.1 °F 20.7 °F 93% 29.58 in 7.0 mi SSE 6.9 mph - N/A   Clear
5:55 AM 22.1 °F 11.3 °F 20.1 °F 92% 29.58 in 10.0 mi SSE 10.4 mph - N/A   Clear
6:15 AM 23.0 °F 12.4 °F 20.1 °F 89% 29.57 in 10.0 mi SSE 10.4 mph - N/A   Clear
6:35 AM 22.8 °F 12.2 °F 19.4 °F 87% 29.57 in 10.0 mi SSE 10.4 mph - N/A   Clear
6:55 AM 23.0 °F 11.1 °F 18.9 °F 84% 29.56 in 10.0 mi SSE 12.7 mph - N/A   Clear
7:15 AM 23.4 °F 11.6 °F 18.5 °F 82% 29.55 in 10.0 mi South 12.7 mph - N/A   Clear
7:35 AM 23.9 °F 12.9 °F 18.5 °F 80% 29.56 in 10.0 mi South 11.5 mph 16.1 mph N/A   Clear
7:55 AM 24.8 °F 15.3 °F 18.3 °F 76% 29.56 in 10.0 mi South 9.2 mph - N/A   Clear
8:15 AM 26.1 °F 16.2 °F 19.0 °F 75% 29.56 in 10.0 mi South 10.4 mph - N/A   Clear
8:35 AM 26.6 °F 16.8 °F 19.4 °F 74% 29.55 in 10.0 mi South 10.4 mph - N/A   Clear
8:55 AM 27.7 °F 19.6 °F 19.8 °F 72% 29.55 in 10.0 mi South 8.1 mph - N/A   Clear
9:15 AM 29.8 °F 23.9 °F 20.3 °F 68% 29.55 in 10.0 mi South 5.8 mph - N/A   Clear
9:35 AM 31.8 °F 23.9 °F 20.5 °F 63% 29.55 in 10.0 mi South 9.2 mph - N/A   Clear
9:55 AM 32.2 °F 24.4 °F 21.0 °F 63% 29.54 in 10.0 mi SSW 9.2 mph - N/A   Clear
10:15 AM 32.4 °F 26.0 °F 21.4 °F 64% 29.54 in 10.0 mi South 6.9 mph - 0.01 in   Clear
10:35 AM 34.0 °F 28.0 °F 21.7 °F 61% 29.53 in 10.0 mi South 6.9 mph - 0.01 in   Clear
10:55 AM 35.4 °F 29.0 °F 21.9 °F 58% 29.53 in 10.0 mi South 8.1 mph - 0.03 in   Clear
11:15 AM 36.1 °F 33.5 °F 21.9 °F 56% 29.53 in 10.0 mi South 3.5 mph - 0.02 in   Clear
11:35 AM 36.9 °F - 21.9 °F 55% 29.55 in 10.0 mi Calm Calm - 0.04 in   Clear
11:55 AM 36.7 °F 31.2 °F 22.1 °F 56% 29.55 in 10.0 mi West 6.9 mph - 0.06 in   Clear
12:15 PM 36.1 °F 29.9 °F 22.1 °F 57% 29.54 in 10.0 mi WSW 8.1 mph - N/A   Clear
12:35 PM 36.3 °F 30.8 °F 21.7 °F 56% 29.53 in 10.0 mi WSW 6.9 mph - 0.02 in   Clear
12:55 PM 36.5 °F 32.7 °F 22.3 °F 56% 29.53 in 10.0 mi WSW 4.6 mph - 0.02 in   Clear
1:15 PM 37.4 °F 32.8 °F 22.3 °F 54% 29.53 in 10.0 mi WSW 5.8 mph - N/A   Clear
1:35 PM 37.9 °F - 21.9 °F 53% 29.53 in 10.0 mi Calm Calm - N/A   Clear
1:55 PM 38.8 °F 35.4 °F 22.3 °F 51% 29.54 in 10.0 mi West 4.6 mph - N/A   Clear
2:15 PM 38.7 °F - 22.8 °F 53% 29.53 in 10.0 mi Calm Calm - N/A   Mostly Cloudy
2:35 PM 38.3 °F 33.9 °F 23.9 °F 56% 29.53 in 10.0 mi West 5.8 mph - N/A   Mostly Cloudy
2:55 PM 39.6 °F 35.4 °F 23.2 °F 52% 29.53 in 10.0 mi SW 5.8 mph - N/A   Mostly Cloudy
3:15 PM 39.6 °F 36.3 °F 23.2 °F 52% 29.54 in 10.0 mi SW 4.6 mph - N/A   Scattered Clouds
3:35 PM 39.2 °F 35.0 °F 24.1 °F 55% 29.54 in 10.0 mi West 5.8 mph - N/A   Scattered Clouds
3:55 PM 39.6 °F 35.4 °F 23.7 °F 53% 29.55 in 10.0 mi WNW 5.8 mph - N/A   Scattered Clouds
4:15 PM 39.4 °F 36.1 °F 23.7 °F 54% 29.56 in 10.0 mi West 4.6 mph - N/A   Scattered Clouds
4:35 PM 39.2 °F 34.2 °F 23.7 °F 54% 29.57 in 10.0 mi West 6.9 mph - N/A   Scattered Clouds
4:55 PM 37.9 °F 35.5 °F 23.9 °F 57% 29.58 in 10.0 mi WNW 3.5 mph - N/A   Clear
5:15 PM 37.6 °F 34.0 °F 23.7 °F 57% 29.58 in 10.0 mi West 4.6 mph - N/A   Clear
5:35 PM 36.0 °F 32.1 °F 23.9 °F 62% 29.59 in 10.0 mi West 4.6 mph - N/A   Clear
5:55 PM 36.0 °F 32.1 °F 23.9 °F 62% 29.60 in 10.0 mi West 4.6 mph - N/A   Clear
6:15 PM 34.9 °F 30.8 °F 23.5 °F 63% 29.61 in 10.0 mi West 4.6 mph - N/A   Clear
6:35 PM 31.8 °F - 22.6 °F 69% 29.61 in 10.0 mi Calm Calm - N/A   Clear
6:55 PM 31.6 °F - 23.5 °F 72% 29.62 in 10.0 mi Calm Calm - N/A   Clear
7:15 PM 30.2 °F - 23.5 °F 76% 29.62 in 10.0 mi Calm Calm - N/A   Clear
7:35 PM 28.8 °F - 22.6 °F 78% 29.63 in 10.0 mi Calm Calm - N/A   Clear
7:55 PM 27.5 °F - 22.1 °F 80% 29.63 in 10.0 mi Calm Calm - N/A   Clear
8:15 PM 26.4 °F 20.9 °F 21.6 °F 82% 29.64 in 10.0 mi WSW 4.6 mph - N/A   Clear
8:35 PM 26.6 °F 19.1 °F 22.1 °F 83% 29.65 in 10.0 mi WSW 6.9 mph - N/A   Clear
8:55 PM 28.8 °F 21.7 °F 22.3 °F 77% 29.65 in 10.0 mi WSW 6.9 mph - N/A   Clear
9:15 PM 28.6 °F 21.5 °F 22.1 °F 77% 29.66 in 10.0 mi West 6.9 mph - N/A   Clear
9:35 PM 30.2 °F 23.4 °F 23.2 °F 75% 29.67 in 10.0 mi West 6.9 mph - N/A   Clear
9:55 PM 30.6 °F 23.8 °F 23.4 °F 75% 29.67 in 10.0 mi West 6.9 mph - N/A   Clear
10:15 PM 29.7 °F 22.8 °F 22.8 °F 76% 29.68 in 10.0 mi West 6.9 mph - N/A   Clear
10:35 PM 29.3 °F 23.2 °F 22.8 °F 77% 29.68 in 10.0 mi West 5.8 mph - N/A   Clear
10:55 PM 28.9 °F 21.9 °F 22.5 °F 77% 29.69 in 10.0 mi West 6.9 mph - N/A   Clear
11:15 PM 28.4 °F 21.2 °F 22.1 °F 77% 29.69 in 10.0 mi West 6.9 mph - N/A   Clear
11:35 PM 27.9 °F 19.8 °F 21.6 °F 77% 29.70 in 10.0 mi West 8.1 mph - N/A   Clear
11:55 PM 27.3 °F 19.9 °F 21.2 °F 78% 29.70 in 10.0 mi West 6.9 mph - N/A   Clear